createdAt,value
2023-03-29T00:00:12.733Z,10.63
2023-03-29T00:03:05.769Z,13.50
2023-03-29T00:06:00.180Z,10.73
2023-03-29T00:08:38.539Z,14.48
2023-03-29T00:11:18.621Z,19.95
2023-03-29T00:14:02.395Z,12.60
2023-03-29T00:16:49.244Z,12.95
2023-03-29T00:19:28.393Z,10.93
2023-03-29T00:22:08.794Z,12.75
2023-03-29T00:27:29.405Z,12.40
2023-03-29T00:30:15.075Z,12.35
2023-03-29T00:32:55.697Z,5.30
2023-03-29T00:35:36.257Z,6.45
2023-03-29T00:38:19.897Z,5.97
2023-03-29T00:41:04.389Z,7.07
2023-03-29T00:44:34.133Z,8.68
2023-03-29T00:47:15.725Z,7.68
2023-03-29T00:50:00.245Z,6.03
2023-03-29T00:52:42.609Z,10.43
2023-03-29T00:55:27.842Z,6.05
2023-03-29T00:58:10.267Z,7.05
2023-03-29T01:01:00.260Z,7.78
2023-03-29T01:03:46.683Z,6.75
2023-03-29T01:06:33.389Z,11.50
2023-03-29T01:09:21.130Z,5.70
2023-03-29T01:12:04.651Z,10.07
2023-03-29T01:15:08.663Z,6.20
2023-03-29T01:17:50.981Z,9.27
2023-03-29T01:20:48.594Z,8.52
2023-03-29T01:23:43.866Z,5.13
2023-03-29T01:26:32.879Z,5.63
2023-03-29T01:29:18.325Z,5.15
2023-03-29T01:32:20.599Z,8.85
2023-03-29T01:35:10.555Z,6.15
2023-03-29T01:38:13.793Z,6.93
2023-03-29T01:41:05.678Z,6.47
2023-03-29T01:44:22.891Z,8.02
2023-03-29T01:47:20.990Z,7.80
2023-03-29T01:50:14.792Z,9.82
2023-03-29T01:53:24.957Z,14.27
2023-03-29T01:56:17.811Z,9.73
2023-03-29T01:59:17.295Z,9.68
2023-03-29T02:02:02.670Z,9.45
2023-03-29T02:04:41.895Z,14.40
2023-03-29T02:07:24.526Z,9.50
2023-03-29T02:10:09.343Z,12.05
2023-03-29T02:12:50.834Z,10.25
2023-03-29T02:15:28.421Z,9.02
2023-03-29T02:18:14.735Z,8.18
2023-03-29T02:20:49.295Z,10.10
2023-03-29T02:23:38.986Z,7.82
2023-03-29T02:26:26.038Z,8.32
2023-03-29T02:29:12.675Z,11.98
2023-03-29T02:32:13.388Z,19.63
2023-03-29T02:35:01.980Z,16.52
2023-03-29T02:37:54.561Z,20.65
2023-03-29T02:40:35.750Z,32.17
2023-03-29T02:43:26.381Z,41.53
2023-03-29T02:46:08.753Z,29.50
2023-03-29T02:49:03.394Z,32.05
2023-03-29T02:51:48.340Z,27.33
2023-03-29T02:54:31.090Z,32.17
2023-03-29T02:57:34.670Z,41.60
2023-03-29T03:00:20.157Z,29.73
2023-03-29T03:03:06.260Z,30.75
2023-03-29T03:05:52.660Z,38.05
2023-03-29T03:08:38.993Z,34.33
2023-03-29T03:11:25.076Z,34.25
2023-03-29T03:14:05.882Z,40.25
2023-03-29T03:16:52.987Z,44.67
2023-03-29T03:19:33.979Z,53.88
2023-03-29T03:22:15.394Z,53.40
2023-03-29T03:27:43.707Z,30.73
2023-03-29T03:30:28.221Z,35.13
2023-03-29T03:33:30.672Z,40.33
2023-03-29T03:36:34.543Z,41.50
2023-03-29T03:39:18.675Z,40.15
2023-03-29T03:42:08.356Z,42.97
2023-03-29T03:44:51.906Z,35.65
2023-03-29T03:47:52.211Z,37.38
2023-03-29T03:51:01.644Z,25.95
2023-03-29T03:53:46.828Z,39.13
2023-03-29T03:56:28.367Z,39.28
2023-03-29T03:59:29.842Z,56.40
2023-03-29T04:02:13.597Z,71.43
2023-03-29T04:04:55.755Z,66.47
2023-03-29T04:07:45.116Z,76.85
2023-03-29T04:11:05.996Z,68.65
2023-03-29T04:13:49.978Z,84.25
2023-03-29T04:16:52.801Z,75.07
2023-03-29T04:19:52.229Z,69.82
2023-03-29T04:22:33.442Z,79.68
2023-03-29T04:25:15.168Z,93.43
2023-03-29T04:28:10.616Z,79.20
2023-03-29T04:31:26.922Z,66.22
2023-03-29T04:34:27.414Z,69.45
2023-03-29T04:37:14.615Z,69.97
2023-03-29T04:39:55.596Z,85.18
2023-03-29T04:42:36.169Z,96.13
2023-03-29T04:45:32.404Z,97.38
2023-03-29T04:48:28.652Z,110.20
2023-03-29T04:51:18.402Z,124.55
2023-03-29T04:54:02.991Z,131.25
2023-03-29T04:56:56.475Z,133.75
2023-03-29T04:59:58.579Z,124.13
2023-03-29T05:02:58.685Z,128.15
2023-03-29T05:05:46.065Z,133.00
2023-03-29T05:08:34.888Z,132.10
2023-03-29T05:11:45.002Z,138.60
2023-03-29T05:14:30.974Z,134.82
2023-03-29T05:17:09.311Z,145.35
2023-03-29T05:19:49.858Z,134.93
2023-03-29T05:22:39.941Z,127.22
2023-03-29T05:25:36.521Z,122.65
2023-03-29T05:28:18.496Z,125.72
2023-03-29T05:31:17.269Z,126.30
2023-03-29T05:34:10.412Z,128.85
2023-03-29T05:37:00.598Z,125.65
2023-03-29T05:39:49.397Z,110.32
2023-03-29T05:42:31.608Z,102.53
2023-03-29T05:51:04.816Z,75.00
2023-03-29T05:53:47.822Z,72.35
2023-03-29T05:56:28.701Z,62.05
2023-03-29T05:59:04.375Z,52.92
2023-03-29T06:04:44.935Z,61.97
2023-03-29T06:07:37.160Z,55.38
2023-03-29T06:10:46.292Z,31.30
2023-03-29T06:13:51.844Z,27.90
2023-03-29T06:16:30.760Z,34.40
2023-03-29T06:19:06.944Z,33.85
2023-03-29T06:21:54.441Z,23.95
2023-03-29T06:24:42.586Z,24.42
2023-03-29T06:27:46.842Z,10.82
2023-03-29T06:30:24.661Z,9.88
2023-03-29T06:33:14.395Z,8.02
2023-03-29T06:36:27.710Z,8.55
2023-03-29T06:39:11.914Z,10.88
2023-03-29T06:42:21.254Z,16.88
2023-03-29T06:45:29.504Z,17.67
2023-03-29T06:48:15.554Z,14.85
2023-03-29T06:50:54.677Z,15.65
2023-03-29T06:53:43.441Z,15.40
2023-03-29T06:56:29.970Z,13.27
2023-03-29T06:59:20.451Z,14.52
2023-03-29T07:02:24.516Z,14.75
2023-03-29T07:05:11.519Z,16.15
2023-03-29T07:08:06.190Z,13.35
2023-03-29T07:11:02.160Z,12.32
2023-03-29T07:13:49.614Z,15.13
2023-03-29T07:16:28.743Z,15.48
2023-03-29T07:19:22.918Z,10.90
2023-03-29T07:22:08.294Z,9.10
2023-03-29T07:25:00.026Z,10.15
2023-03-29T07:27:43.215Z,7.65
2023-03-29T07:30:33.278Z,9.80
2023-03-29T07:33:45.669Z,10.65
2023-03-29T07:36:26.648Z,7.72
2023-03-29T07:39:13.009Z,9.65
2023-03-29T07:42:13.946Z,7.82
2023-03-29T07:44:55.876Z,7.53
2023-03-29T07:47:40.842Z,13.20
2023-03-29T07:50:27.617Z,8.10
2023-03-29T07:53:07.792Z,5.85
2023-03-29T07:55:54.465Z,8.35
2023-03-29T07:59:01.346Z,5.60
2023-03-29T08:01:50.304Z,7.40
2023-03-29T08:04:41.860Z,5.28
2023-03-29T08:07:26.383Z,7.28
2023-03-29T08:10:07.130Z,7.97
2023-03-29T08:13:08.534Z,7.63
2023-03-29T08:16:00.351Z,11.55
2023-03-29T08:18:49.455Z,7.10
2023-03-29T08:21:34.419Z,6.90
2023-03-29T08:24:23.267Z,7.38
2023-03-29T08:27:07.679Z,5.30
2023-03-29T08:30:00.569Z,8.60
2023-03-29T08:32:54.880Z,7.57
2023-03-29T08:35:38.492Z,8.07
2023-03-29T08:38:29.191Z,8.95
2023-03-29T08:41:26.599Z,8.80
2023-03-29T08:44:20.351Z,4.97
2023-03-29T08:47:51.626Z,7.63
2023-03-29T08:50:52.760Z,7.32
2023-03-29T08:53:39.605Z,5.82
2023-03-29T08:56:46.792Z,3.70
2023-03-29T08:59:47.541Z,4.72
2023-03-29T09:02:30.782Z,4.65
2023-03-29T09:05:39.110Z,4.15
2023-03-29T09:08:30.084Z,13.55
2023-03-29T09:11:33.584Z,21.65
2023-03-29T09:14:28.987Z,5.20
2023-03-29T09:17:37.199Z,20.98
2023-03-29T09:20:37.564Z,6.80
2023-03-29T09:23:40.235Z,26.90
2023-03-29T09:27:34.307Z,6.70
2023-03-29T09:30:36.081Z,4.82
2023-03-29T09:33:25.036Z,4.93
2023-03-29T09:36:38.858Z,5.50
2023-03-29T09:39:28.020Z,3.92
2023-03-29T09:42:30.166Z,6.03
2023-03-29T09:45:11.602Z,5.97
2023-03-29T09:48:00.687Z,3.65
2023-03-29T09:50:50.142Z,8.05
2023-03-29T09:53:36.358Z,6.00
2023-03-29T09:56:40.770Z,7.13
2023-03-29T09:59:27.270Z,5.45
2023-03-29T10:02:15.518Z,3.77
2023-03-29T10:05:04.221Z,4.40
2023-03-29T10:07:54.790Z,4.85
2023-03-29T10:10:50.390Z,3.95
2023-03-29T10:13:35.041Z,5.45
2023-03-29T10:16:33.668Z,4.88
2023-03-29T10:19:32.655Z,5.03
2023-03-29T10:22:22.119Z,7.95
2023-03-29T10:25:06.618Z,7.22
2023-03-29T10:27:57.029Z,6.97
2023-03-29T10:30:39.643Z,3.97
2023-03-29T10:33:24.210Z,7.65
2023-03-29T10:36:12.595Z,4.03
2023-03-29T10:38:53.036Z,5.03
2023-03-29T10:41:42.000Z,7.18
2023-03-29T10:44:37.875Z,8.98
2023-03-29T10:47:37.815Z,3.63
2023-03-29T10:50:20.901Z,3.08
2023-03-29T10:53:06.182Z,3.97
2023-03-29T10:56:20.133Z,4.85
2023-03-29T10:59:44.777Z,7.55
2023-03-29T11:02:51.391Z,7.70
2023-03-29T11:05:38.374Z,5.65
2023-03-29T11:08:31.603Z,7.13
2023-03-29T11:11:25.456Z,6.30
2023-03-29T11:14:28.168Z,4.07
2023-03-29T11:17:25.612Z,10.68
2023-03-29T11:20:40.366Z,8.05
2023-03-29T11:23:36.377Z,4.57
2023-03-29T11:26:49.867Z,6.80
2023-03-29T11:29:47.441Z,5.63
2023-03-29T11:32:42.133Z,10.13
2023-03-29T11:35:39.665Z,5.85
2023-03-29T11:38:45.337Z,7.45
2023-03-29T11:41:37.342Z,5.40
2023-03-29T11:44:38.875Z,6.57
2023-03-29T11:47:37.374Z,5.53
2023-03-29T11:50:58.121Z,5.82
2023-03-29T11:54:22.597Z,5.35
2023-03-29T11:57:11.650Z,4.35
2023-03-29T11:59:59.167Z,4.13
2023-03-29T12:02:42.972Z,8.00
2023-03-29T12:05:45.081Z,5.70
2023-03-29T12:08:31.680Z,8.98
2023-03-29T12:11:23.668Z,6.97
2023-03-29T12:14:16.268Z,6.00
2023-03-29T12:17:23.284Z,5.72
2023-03-29T12:20:31.840Z,6.28
2023-03-29T12:23:13.977Z,5.10
2023-03-29T12:26:09.113Z,4.40
2023-03-29T12:28:57.407Z,7.53
2023-03-29T12:31:50.307Z,6.50
2023-03-29T12:35:02.153Z,7.05
2023-03-29T12:38:09.823Z,4.90
2023-03-29T12:41:40.623Z,6.35
2023-03-29T12:44:38.713Z,4.72
2023-03-29T12:47:47.740Z,8.32
2023-03-29T12:50:41.067Z,6.97
2023-03-29T12:53:32.480Z,5.53
2023-03-29T12:56:14.004Z,8.27
2023-03-29T12:58:56.782Z,8.13
2023-03-29T13:01:37.978Z,7.75
2023-03-29T13:05:10.686Z,6.68
2023-03-29T13:08:03.024Z,9.70
2023-03-29T13:13:37.037Z,8.43
2023-03-29T13:16:35.789Z,8.98
2023-03-29T13:19:20.550Z,5.95
2023-03-29T13:22:38.871Z,10.13
2023-03-29T13:25:32.769Z,9.63
2023-03-29T13:28:28.584Z,8.40
2023-03-29T13:31:35.599Z,5.95
2023-03-29T13:34:26.050Z,9.05
2023-03-29T13:37:32.245Z,6.55
2023-03-29T13:40:28.387Z,7.15
2023-03-29T13:43:32.843Z,6.50
2023-03-29T13:46:24.174Z,7.78
2023-03-29T13:49:27.248Z,8.85
2023-03-29T13:52:18.161Z,6.43
2023-03-29T13:55:22.092Z,6.88
2023-03-29T13:58:07.849Z,3.28
2023-03-29T14:01:24.002Z,9.35
2023-03-29T14:04:10.592Z,8.77
2023-03-29T14:06:58.253Z,9.48
2023-03-29T14:09:43.508Z,8.40
2023-03-29T14:12:33.470Z,10.40
2023-03-29T14:15:24.309Z,4.85
2023-03-29T14:18:08.114Z,7.00
2023-03-29T14:20:49.832Z,9.23
2023-03-29T14:23:32.564Z,7.95
2023-03-29T14:26:34.597Z,6.43
2023-03-29T14:29:25.051Z,10.52
2023-03-29T14:32:18.583Z,8.93
2023-03-29T14:34:58.615Z,6.63
2023-03-29T14:37:44.872Z,7.28
2023-03-29T14:40:28.121Z,6.50
2023-03-29T14:43:08.850Z,9.85
2023-03-29T14:46:05.705Z,6.85
2023-03-29T14:48:42.740Z,5.35
2023-03-29T14:51:29.617Z,5.03
2023-03-29T14:54:22.332Z,8.57
2023-03-29T14:57:21.207Z,7.18
2023-03-29T15:00:53.844Z,6.90
2023-03-29T15:03:54.554Z,5.43
2023-03-29T15:06:50.846Z,8.05
2023-03-29T15:09:38.797Z,6.00
2023-03-29T15:12:24.199Z,10.95
2023-03-29T15:15:07.825Z,7.28
2023-03-29T15:17:53.006Z,6.60
2023-03-29T15:20:35.708Z,8.30
2023-03-29T15:23:37.628Z,7.57
2023-03-29T15:26:27.596Z,8.57
2023-03-29T15:29:26.006Z,6.40
2023-03-29T15:32:18.080Z,6.45
2023-03-29T15:35:07.915Z,9.05
2023-03-29T15:37:57.100Z,7.57
2023-03-29T15:40:48.445Z,9.43
2023-03-29T15:43:37.887Z,8.43
2023-03-29T15:46:21.776Z,13.95
2023-03-29T15:49:05.660Z,7.28
2023-03-29T15:51:49.447Z,7.82
2023-03-29T15:54:32.333Z,6.25
2023-03-29T15:57:24.277Z,9.75
2023-03-29T16:00:10.673Z,17.95
2023-03-29T16:02:53.815Z,11.18
2023-03-29T16:05:38.322Z,11.63
2023-03-29T16:08:15.704Z,7.93
2023-03-29T16:10:51.160Z,10.25
2023-03-29T16:13:37.579Z,8.10
2023-03-29T16:16:17.054Z,11.10
2023-03-29T16:18:59.604Z,8.85
2023-03-29T16:21:35.515Z,8.50
2023-03-29T16:24:25.393Z,11.27
2023-03-29T16:27:20.917Z,10.30
2023-03-29T16:29:59.046Z,7.57
2023-03-29T16:32:58.693Z,8.27
2023-03-29T16:35:40.631Z,6.95
2023-03-29T16:38:24.515Z,10.27
2023-03-29T16:41:06.986Z,8.63
2023-03-29T16:43:47.912Z,11.13
2023-03-29T16:46:31.561Z,14.02
2023-03-29T16:49:27.475Z,11.45
2023-03-29T16:52:10.767Z,7.47
2023-03-29T16:54:52.635Z,9.40
2023-03-29T16:57:53.024Z,14.27
2023-03-29T17:00:33.432Z,12.27
2023-03-29T17:03:11.302Z,10.90
2023-03-29T17:05:59.086Z,9.75
2023-03-29T17:08:40.085Z,8.30
2023-03-29T17:11:24.733Z,10.27
2023-03-29T17:14:03.077Z,14.10
2023-03-29T17:16:46.504Z,12.40
2023-03-29T17:19:24.245Z,17.20
2023-03-29T17:22:21.906Z,13.50
2023-03-29T17:25:10.779Z,10.75
2023-03-29T17:27:55.581Z,10.43
2023-03-29T17:30:34.503Z,8.40
2023-03-29T17:33:20.388Z,9.73
2023-03-29T17:36:04.242Z,10.63
2023-03-29T17:38:45.926Z,10.43
2023-03-29T17:41:31.341Z,8.35
2023-03-29T17:44:07.116Z,7.30
2023-03-29T17:46:56.437Z,13.10
2023-03-29T17:49:37.244Z,7.63
2023-03-29T17:52:19.472Z,10.13
2023-03-29T17:55:03.225Z,11.48
2023-03-29T17:57:48.151Z,8.40
2023-03-29T18:00:31.329Z,12.80
2023-03-29T18:03:12.289Z,12.52
2023-03-29T18:05:57.816Z,9.85
2023-03-29T18:08:50.776Z,11.50
2023-03-29T18:11:33.287Z,13.48
2023-03-29T18:14:13.596Z,16.77
2023-03-29T18:16:57.816Z,14.40
2023-03-29T18:19:56.417Z,16.30
2023-03-29T18:22:38.648Z,13.98
2023-03-29T18:25:15.834Z,14.98
2023-03-29T18:27:59.639Z,16.95
2023-03-29T18:30:46.333Z,17.52
2023-03-29T18:33:33.204Z,15.02
2023-03-29T18:36:32.485Z,17.88
2023-03-29T18:39:09.555Z,17.48
2023-03-29T18:41:57.513Z,18.15
2023-03-29T18:44:43.933Z,16.65
2023-03-29T18:47:39.304Z,18.35
2023-03-29T18:50:20.130Z,19.63
2023-03-29T18:53:04.042Z,18.92
2023-03-29T18:55:44.956Z,47.85
2023-03-29T18:58:28.854Z,97.03
2023-03-29T19:01:14.415Z,36.33
2023-03-29T19:03:58.016Z,19.50
2023-03-29T19:06:43.847Z,24.77
2023-03-29T19:09:24.248Z,24.58
2023-03-29T19:11:59.097Z,27.48
2023-03-29T19:14:39.661Z,24.05
2023-03-29T19:17:20.168Z,21.42
2023-03-29T19:19:58.577Z,17.33
2023-03-29T19:22:45.908Z,29.40
2023-03-29T19:25:26.290Z,28.55
2023-03-29T19:28:10.032Z,25.27
2023-03-29T19:30:49.222Z,20.13
2023-03-29T19:33:27.020Z,19.25
2023-03-29T19:36:07.796Z,21.70
2023-03-29T19:38:50.246Z,18.60
2023-03-29T19:41:33.082Z,18.83
2023-03-29T19:44:18.854Z,19.02
2023-03-29T19:47:08.689Z,18.92
2023-03-29T19:49:52.184Z,19.02
2023-03-29T19:52:37.893Z,20.48
2023-03-29T19:55:23.954Z,17.83
2023-03-29T20:00:50.803Z,17.05
2023-03-29T20:03:35.669Z,18.42
2023-03-29T20:06:12.928Z,17.98
2023-03-29T20:08:56.127Z,18.10
2023-03-29T20:11:36.902Z,21.58
2023-03-29T20:14:28.320Z,20.73
2023-03-29T20:17:11.549Z,17.60
2023-03-29T20:19:49.530Z,19.08
2023-03-29T20:22:32.873Z,17.92
2023-03-29T20:25:16.114Z,18.98
2023-03-29T20:27:53.654Z,20.27
2023-03-29T20:30:37.404Z,14.38
2023-03-29T20:33:23.871Z,15.63
2023-03-29T20:36:07.842Z,17.40
2023-03-29T20:38:47.909Z,15.98
2023-03-29T20:41:28.696Z,14.38
2023-03-29T20:44:11.919Z,14.57
2023-03-29T20:47:05.036Z,9.10
2023-03-29T20:49:42.735Z,12.15
2023-03-29T20:52:35.059Z,17.42
2023-03-29T20:55:22.380Z,15.15
2023-03-29T20:58:09.087Z,17.30
2023-03-29T21:00:48.514Z,15.32
2023-03-29T21:03:27.594Z,19.60
2023-03-29T21:06:14.128Z,19.73
2023-03-29T21:09:06.298Z,22.65
2023-03-29T21:11:44.163Z,20.00
2023-03-29T21:14:30.429Z,24.65
2023-03-29T21:17:07.528Z,28.05
2023-03-29T21:20:04.060Z,26.23
2023-03-29T21:22:42.802Z,32.83
2023-03-29T21:25:22.632Z,27.90
2023-03-29T21:28:00.440Z,30.52
2023-03-29T21:30:38.542Z,26.98
2023-03-29T21:33:16.907Z,30.15
2023-03-29T21:35:57.982Z,31.52
2023-03-29T21:38:38.717Z,33.35
2023-03-29T21:41:25.696Z,29.45
2023-03-29T21:44:06.415Z,32.65
2023-03-29T21:46:51.960Z,30.20
2023-03-29T21:49:33.017Z,29.30
2023-03-29T21:52:10.782Z,27.63
2023-03-29T21:54:52.213Z,24.50
2023-03-29T22:00:18.844Z,25.20
2023-03-29T22:02:59.064Z,22.50
2023-03-29T22:05:39.858Z,27.25
2023-03-29T22:08:25.566Z,27.10
2023-03-29T22:11:13.066Z,26.30
2023-03-29T22:14:10.998Z,27.92
2023-03-29T22:16:51.689Z,26.95
2023-03-29T22:19:30.401Z,34.55
2023-03-29T22:22:17.656Z,38.95
2023-03-29T22:25:04.405Z,35.50
2023-03-29T22:27:44.896Z,48.50
2023-03-29T22:30:29.202Z,40.17
2023-03-29T22:33:07.346Z,30.45
2023-03-29T22:35:51.671Z,33.13
2023-03-29T22:38:28.938Z,31.13
2023-03-29T22:41:19.193Z,29.05
2023-03-29T22:43:57.492Z,32.92
2023-03-29T22:46:38.677Z,25.48
2023-03-29T22:49:23.082Z,30.05
2023-03-29T22:52:09.421Z,25.33
2023-03-29T22:57:36.715Z,28.63
2023-03-29T23:00:26.373Z,24.92
2023-03-29T23:03:07.099Z,27.60
2023-03-29T23:05:55.258Z,33.28
2023-03-29T23:08:34.433Z,31.13
2023-03-29T23:11:15.134Z,30.48
2023-03-29T23:13:57.504Z,33.47
2023-03-29T23:16:40.737Z,34.90
2023-03-29T23:19:22.185Z,36.72
2023-03-29T23:21:57.782Z,35.67
2023-03-29T23:24:46.289Z,33.25
2023-03-29T23:27:27.628Z,32.88
2023-03-29T23:30:10.684Z,31.45
2023-03-29T23:32:54.029Z,31.17
2023-03-29T23:35:39.368Z,31.88
2023-03-29T23:38:17.669Z,34.35
2023-03-29T23:41:11.053Z,31.77
2023-03-29T23:43:52.378Z,29.23
2023-03-29T23:46:33.139Z,33.58
2023-03-29T23:49:13.903Z,32.92
2023-03-29T23:52:00.262Z,27.42
2023-03-29T23:54:46.254Z,28.73
2023-03-29T23:57:29.634Z,32.42
